createdAt,value
2018-07-02T00:00:24.214Z,99.90
2018-07-02T00:02:53.216Z,99.90
2018-07-02T00:05:22.284Z,99.90
2018-07-02T00:07:51.209Z,99.90
2018-07-02T00:10:20.446Z,99.90
2018-07-02T00:12:49.374Z,99.90
2018-07-02T00:15:18.626Z,99.90
2018-07-02T00:17:47.479Z,99.90
2018-07-02T00:20:16.631Z,99.90
2018-07-02T00:22:45.290Z,99.90
2018-07-02T00:25:13.767Z,99.90
2018-07-02T00:27:42.369Z,99.90
2018-07-02T00:30:11.005Z,99.90
2018-07-02T00:32:39.430Z,99.90
2018-07-02T00:35:07.887Z,99.90
2018-07-02T00:37:36.350Z,99.90
2018-07-02T00:42:33.001Z,99.90
2018-07-02T00:45:01.568Z,99.90
2018-07-02T00:47:30.010Z,99.90
2018-07-02T00:49:58.454Z,99.90
2018-07-02T00:54:55.199Z,99.90
2018-07-02T00:57:23.766Z,99.90
2018-07-02T00:59:52.226Z,99.90
2018-07-02T01:02:20.898Z,99.90
2018-07-02T01:04:49.410Z,99.90
2018-07-02T01:07:18.031Z,99.90
2018-07-02T01:09:46.470Z,99.90
2018-07-02T01:12:14.979Z,99.90
2018-07-02T01:14:43.478Z,99.90
2018-07-02T01:17:11.997Z,99.90
2018-07-02T01:19:40.480Z,99.90
2018-07-02T01:22:08.929Z,99.90
2018-07-02T01:24:37.365Z,99.90
2018-07-02T01:27:06.037Z,99.90
2018-07-02T01:29:34.873Z,99.90
2018-07-02T01:32:03.713Z,99.90
2018-07-02T01:34:32.148Z,99.90
2018-07-02T01:37:00.576Z,99.90
2018-07-02T01:39:28.993Z,99.90
2018-07-02T01:41:57.654Z,99.90
2018-07-02T01:44:26.206Z,99.90
2018-07-02T01:46:54.642Z,99.90
2018-07-02T01:49:23.150Z,99.90
2018-07-02T01:51:51.851Z,99.90
2018-07-02T01:54:20.365Z,99.90
2018-07-02T01:56:48.811Z,99.90
2018-07-02T01:59:17.289Z,99.90
2018-07-02T02:01:45.878Z,99.90
2018-07-02T02:04:14.413Z,99.90
2018-07-02T02:06:42.853Z,99.90
2018-07-02T02:09:11.769Z,99.90
2018-07-02T02:11:40.498Z,99.90
2018-07-02T02:14:09.123Z,99.90
2018-07-02T02:16:37.742Z,99.90
2018-07-02T02:19:06.522Z,99.90
2018-07-02T02:21:35.018Z,99.90
2018-07-02T02:24:03.679Z,99.90
2018-07-02T02:26:32.155Z,99.90
2018-07-02T02:29:00.589Z,99.90
2018-07-02T02:31:29.042Z,99.90
2018-07-02T02:33:57.454Z,99.90
2018-07-02T02:36:25.970Z,99.90
2018-07-02T02:38:54.394Z,99.90
2018-07-02T02:41:23.052Z,99.90
2018-07-02T02:43:51.647Z,99.90
2018-07-02T02:46:20.099Z,99.90
2018-07-02T02:48:48.752Z,99.90
2018-07-02T02:51:19.889Z,99.90
2018-07-02T02:53:48.369Z,99.90
2018-07-02T02:56:17.085Z,99.90
2018-07-02T02:58:45.626Z,99.90
2018-07-02T03:01:14.269Z,99.90
2018-07-02T03:03:42.974Z,99.90
2018-07-02T03:06:11.413Z,99.90
2018-07-02T03:08:39.913Z,99.90
2018-07-02T03:11:08.338Z,99.90
2018-07-02T03:13:36.797Z,99.90
2018-07-02T03:16:05.765Z,99.90
2018-07-02T03:18:34.238Z,99.90
2018-07-02T03:21:02.675Z,99.90
2018-07-02T03:23:31.094Z,99.90
2018-07-02T03:25:59.511Z,99.90
2018-07-02T03:28:27.944Z,99.90
2018-07-02T03:30:56.504Z,99.90
2018-07-02T03:33:25.399Z,99.90
2018-07-02T03:35:54.006Z,99.90
2018-07-02T03:38:22.451Z,99.90
2018-07-02T03:40:51.001Z,99.90
2018-07-02T03:43:19.730Z,99.90
2018-07-02T03:45:48.303Z,99.90
2018-07-02T03:48:16.748Z,99.90
2018-07-02T03:50:45.306Z,99.90
2018-07-02T03:53:13.927Z,99.90
2018-07-02T03:55:42.398Z,99.90
2018-07-02T03:58:11.078Z,99.90
2018-07-02T04:00:39.610Z,99.90
2018-07-02T04:03:08.151Z,99.90
2018-07-02T04:05:36.636Z,99.90
2018-07-02T04:08:05.503Z,99.90
2018-07-02T04:10:34.530Z,99.90
2018-07-02T04:13:03.093Z,99.90
2018-07-02T04:15:31.502Z,99.90
2018-07-02T04:18:00.439Z,99.90
2018-07-02T04:20:28.899Z,99.90
2018-07-02T04:22:57.618Z,99.90
2018-07-02T04:25:26.052Z,99.90
2018-07-02T04:27:55.038Z,99.90
2018-07-02T04:30:24.309Z,99.90
2018-07-02T04:32:52.797Z,99.90
2018-07-02T04:35:21.213Z,99.90
2018-07-02T04:37:50.587Z,99.90
2018-07-02T04:40:19.717Z,99.90
2018-07-02T04:42:48.175Z,99.90
2018-07-02T04:45:16.760Z,99.90
2018-07-02T04:47:45.728Z,99.90
2018-07-02T04:50:15.823Z,99.90
2018-07-02T04:52:44.761Z,99.90
2018-07-02T04:55:13.203Z,99.90
2018-07-02T04:57:41.639Z,99.90
2018-07-02T05:00:10.480Z,99.90
2018-07-02T05:02:39.906Z,99.90
2018-07-02T05:07:36.536Z,99.90
2018-07-02T05:10:04.962Z,99.90
2018-07-02T05:12:33.390Z,99.90
2018-07-02T05:15:02.038Z,89.90
2018-07-02T05:17:31.679Z,87.30
2018-07-02T05:22:30.186Z,74.90
2018-07-02T05:24:58.909Z,66.30
2018-07-02T05:27:27.375Z,60.20
2018-07-02T05:29:56.453Z,60.60
2018-07-02T05:32:25.621Z,59.40
2018-07-02T05:34:54.178Z,58.40
2018-07-02T05:37:22.626Z,59.70
2018-07-02T05:39:51.669Z,58.20
2018-07-02T05:42:21.184Z,57.30
2018-07-02T05:44:49.920Z,57.40
2018-07-02T05:47:18.376Z,55.50
2018-07-02T05:49:47.305Z,56.30
2018-07-02T05:52:15.773Z,58.50
2018-07-02T05:54:44.927Z,55.20
2018-07-02T05:57:14.555Z,56.60
2018-07-02T05:59:43.177Z,55.40
2018-07-02T06:02:11.594Z,53.60
2018-07-02T06:04:40.921Z,53.50
2018-07-02T06:07:11.243Z,54.70
2018-07-02T06:09:47.031Z,53.20
2018-07-02T06:12:15.515Z,52.50
2018-07-02T06:14:45.391Z,51.40
2018-07-02T06:17:14.143Z,50.30
2018-07-02T06:19:43.533Z,47.70
2018-07-02T06:22:12.525Z,48.70
2018-07-02T06:24:42.664Z,47.70
2018-07-02T06:27:11.418Z,46.30
2018-07-02T06:29:40.730Z,42.90
2018-07-02T06:32:09.231Z,41.20
2018-07-02T06:34:37.641Z,43.80
2018-07-02T06:37:07.274Z,39.00
2018-07-02T06:39:36.581Z,37.60
2018-07-02T06:42:05.313Z,36.90
2018-07-02T06:44:34.680Z,37.20
2018-07-02T06:47:03.515Z,36.60
2018-07-02T06:49:31.906Z,37.00
2018-07-02T06:52:01.034Z,35.70
2018-07-02T06:54:29.430Z,35.70
2018-07-02T06:56:57.873Z,35.50
2018-07-02T06:59:26.437Z,34.90
2018-07-02T07:01:54.854Z,36.50
2018-07-02T07:04:23.362Z,33.80
2018-07-02T07:06:51.850Z,35.40
2018-07-02T07:09:20.682Z,35.80
2018-07-02T07:11:50.070Z,34.50
2018-07-02T07:14:18.991Z,35.30
2018-07-02T07:16:47.474Z,33.60
2018-07-02T07:19:16.189Z,34.70
2018-07-02T07:21:45.836Z,34.70
2018-07-02T07:26:43.014Z,33.70
2018-07-02T07:29:12.649Z,33.40
2018-07-02T07:31:41.767Z,34.20
2018-07-02T07:34:11.234Z,35.20
2018-07-02T07:36:39.649Z,35.30
2018-07-02T07:39:09.601Z,35.40
2018-07-02T07:41:39.004Z,34.50
2018-07-02T07:44:07.504Z,34.30
2018-07-02T07:46:37.297Z,34.50
2018-07-02T07:49:05.920Z,33.20
2018-07-02T07:51:35.961Z,32.50
2018-07-02T07:54:04.889Z,34.30
2018-07-02T07:56:33.318Z,32.90
2018-07-02T07:59:03.112Z,32.80
2018-07-02T08:01:31.532Z,33.20
2018-07-02T08:04:04.198Z,32.90
2018-07-02T08:06:33.692Z,34.40
2018-07-02T08:09:02.152Z,33.30
2018-07-02T08:11:30.582Z,32.60
2018-07-02T08:13:59.021Z,32.60
2018-07-02T08:16:27.747Z,31.30
2018-07-02T08:18:56.283Z,32.40
2018-07-02T08:21:24.746Z,32.80
2018-07-02T08:23:53.813Z,32.40
2018-07-02T08:26:23.999Z,33.40
2018-07-02T08:28:53.653Z,33.20
2018-07-02T08:31:23.632Z,32.90
2018-07-02T08:33:54.289Z,32.00
2018-07-02T08:36:23.010Z,32.60
2018-07-02T08:38:51.429Z,31.00
2018-07-02T08:41:19.975Z,32.20
2018-07-02T08:43:50.445Z,33.20
2018-07-02T08:46:19.529Z,32.70
2018-07-02T08:48:47.945Z,32.40
2018-07-02T08:51:16.378Z,31.40
2018-07-02T08:53:44.938Z,30.60
2018-07-02T08:56:14.248Z,30.60
2018-07-02T08:58:43.041Z,31.50
2018-07-02T09:01:12.815Z,32.40
2018-07-02T09:03:41.733Z,32.90
2018-07-02T09:06:10.159Z,32.80
2018-07-02T09:11:10.338Z,31.10
2018-07-02T09:13:38.749Z,31.20
2018-07-02T09:16:07.267Z,30.90
2018-07-02T09:18:37.264Z,30.80
2018-07-02T09:21:05.955Z,30.80
2018-07-02T09:23:35.828Z,32.10
2018-07-02T09:26:05.349Z,31.10
2018-07-02T09:28:33.762Z,30.60
2018-07-02T09:31:02.370Z,30.80
2018-07-02T09:33:30.782Z,30.90
2018-07-02T09:36:01.045Z,31.20
2018-07-02T09:38:29.597Z,30.30
2018-07-02T09:40:58.077Z,29.90
2018-07-02T09:43:27.380Z,29.70
2018-07-02T09:48:25.026Z,30.60
2018-07-02T09:50:53.481Z,31.30
2018-07-02T09:53:21.909Z,30.50
2018-07-02T09:55:50.402Z,30.50
2018-07-02T09:58:19.554Z,31.00
2018-07-02T10:00:49.373Z,31.10
2018-07-02T10:03:18.498Z,30.10
2018-07-02T10:05:46.919Z,30.00
2018-07-02T10:08:15.323Z,29.50
2018-07-02T10:10:44.504Z,29.70
2018-07-02T10:13:13.046Z,29.80
2018-07-02T10:15:42.060Z,30.70
2018-07-02T10:18:10.554Z,32.00
2018-07-02T10:20:40.265Z,30.20
2018-07-02T10:23:08.722Z,30.40
2018-07-02T10:25:38.214Z,29.40
2018-07-02T10:28:06.697Z,30.20
2018-07-02T10:30:35.311Z,29.60
2018-07-02T10:33:04.676Z,30.00
2018-07-02T10:35:34.073Z,30.00
2018-07-02T10:38:02.631Z,30.90
2018-07-02T10:40:31.030Z,29.90
2018-07-02T10:45:27.549Z,30.70
2018-07-02T10:47:55.982Z,29.90
2018-07-02T10:50:25.189Z,29.20
2018-07-02T10:52:55.416Z,29.00
2018-07-02T10:55:23.834Z,29.40
2018-07-02T10:57:52.234Z,29.30
2018-07-02T11:00:20.983Z,30.50
2018-07-02T11:05:19.337Z,31.20
2018-07-02T11:07:47.787Z,29.40
2018-07-02T11:10:16.534Z,29.90
2018-07-02T11:15:14.933Z,28.80
2018-07-02T11:17:43.359Z,29.60
2018-07-02T11:20:11.788Z,29.50
2018-07-02T11:22:40.900Z,29.80
2018-07-02T11:27:39.605Z,31.90
2018-07-02T11:30:08.029Z,29.80
2018-07-02T11:32:36.429Z,30.10
2018-07-02T11:35:04.881Z,29.80
2018-07-02T11:37:33.355Z,29.60
2018-07-02T11:40:02.921Z,29.70
2018-07-02T11:45:00.422Z,29.60
2018-07-02T11:47:28.842Z,29.50
2018-07-02T11:49:57.870Z,30.30
2018-07-02T11:52:29.866Z,30.10
2018-07-02T11:54:58.278Z,29.90
2018-07-02T11:57:26.748Z,30.10
2018-07-02T11:59:55.285Z,29.80
2018-07-02T12:02:24.842Z,30.50
2018-07-02T12:04:54.751Z,29.70
2018-07-02T12:07:24.634Z,30.00
2018-07-02T12:09:54.790Z,30.00
2018-07-02T12:12:23.583Z,30.40
2018-07-02T12:14:52.658Z,31.00
2018-07-02T12:17:22.138Z,30.40
2018-07-02T12:19:50.967Z,31.20
2018-07-02T12:22:19.976Z,30.60
2018-07-02T12:24:49.455Z,30.50
2018-07-02T12:27:19.163Z,30.10
2018-07-02T12:29:48.364Z,29.70
2018-07-02T12:32:18.451Z,30.00
2018-07-02T12:34:47.450Z,29.80
2018-07-02T12:37:16.973Z,30.00
2018-07-02T12:39:45.991Z,30.50
2018-07-02T12:42:15.321Z,30.00
2018-07-02T12:44:45.170Z,30.30
2018-07-02T12:47:15.361Z,30.40
2018-07-02T12:49:44.654Z,29.90
2018-07-02T12:52:13.772Z,29.70
2018-07-02T12:54:43.211Z,29.90
2018-07-02T12:57:12.839Z,29.70
2018-07-02T12:59:42.625Z,30.40
2018-07-02T13:02:13.190Z,30.30
2018-07-02T13:04:42.476Z,30.20
2018-07-02T13:07:12.216Z,31.80
2018-07-02T13:09:40.985Z,29.70
2018-07-02T13:12:09.989Z,31.30
2018-07-02T13:14:39.369Z,30.40
2018-07-02T13:17:09.527Z,29.80
2018-07-02T13:19:39.981Z,29.80
2018-07-02T13:22:08.885Z,30.20
2018-07-02T13:24:38.214Z,31.20
2018-07-02T13:27:08.590Z,30.00
2018-07-02T13:29:39.442Z,29.80
2018-07-02T13:32:08.667Z,30.70
2018-07-02T13:34:38.620Z,30.40
2018-07-02T13:37:07.576Z,29.70
2018-07-02T13:39:36.578Z,29.80
2018-07-02T13:42:05.275Z,31.10
2018-07-02T13:44:34.225Z,31.60
2018-07-02T13:47:02.685Z,30.40
2018-07-02T13:49:31.113Z,30.50
2018-07-02T13:52:00.534Z,29.80
2018-07-02T13:54:29.654Z,29.80
2018-07-02T13:56:58.142Z,30.80
2018-07-02T13:59:26.773Z,31.40
2018-07-02T14:01:55.934Z,30.70
2018-07-02T14:04:25.054Z,30.60
2018-07-02T14:06:53.736Z,31.40
2018-07-02T14:09:22.142Z,32.70
2018-07-02T14:11:50.914Z,32.10
2018-07-02T14:14:19.894Z,30.60
2018-07-02T14:16:49.077Z,30.20
2018-07-02T14:19:17.588Z,30.60
2018-07-02T14:21:47.475Z,30.30
2018-07-02T14:24:16.067Z,31.10
2018-07-02T14:26:44.890Z,30.90
2018-07-02T14:29:13.314Z,30.50
2018-07-02T14:31:42.813Z,31.20
2018-07-02T14:34:12.310Z,31.90
2018-07-02T14:36:40.738Z,32.00
2018-07-02T14:39:11.763Z,33.40
2018-07-02T14:41:40.489Z,32.00
2018-07-02T14:44:09.190Z,31.60
2018-07-02T14:46:37.586Z,31.90
2018-07-02T14:49:06.442Z,32.80
2018-07-02T14:51:34.937Z,33.00
2018-07-02T14:54:04.011Z,31.20
2018-07-02T14:56:32.618Z,32.50
2018-07-02T14:59:01.126Z,31.70
2018-07-02T15:01:29.856Z,31.40
2018-07-02T15:04:00.095Z,31.60
2018-07-02T15:06:28.510Z,32.20
2018-07-02T15:08:57.730Z,31.20
2018-07-02T15:11:27.529Z,30.90
2018-07-02T15:13:56.047Z,30.60
2018-07-02T15:16:25.298Z,31.00
2018-07-02T15:18:54.090Z,30.80
2018-07-02T15:21:24.419Z,30.70
2018-07-02T15:23:52.878Z,30.90
2018-07-02T15:26:23.325Z,30.90
2018-07-02T15:28:51.924Z,31.30
2018-07-02T15:31:21.926Z,31.90
2018-07-02T15:33:50.740Z,31.50
2018-07-02T15:36:19.919Z,30.30
2018-07-02T15:38:48.586Z,30.40
2018-07-02T15:41:17.113Z,31.40
2018-07-02T15:43:46.818Z,31.80
2018-07-02T15:46:15.202Z,31.20
2018-07-02T15:48:44.670Z,31.10
2018-07-02T15:51:13.215Z,30.80
2018-07-02T15:53:41.933Z,32.00
2018-07-02T15:56:10.126Z,33.00
2018-07-02T15:58:38.686Z,32.00
2018-07-02T16:01:07.214Z,32.40
2018-07-02T16:03:37.476Z,32.40
2018-07-02T16:06:06.159Z,32.30
2018-07-02T16:08:35.319Z,32.40
2018-07-02T16:11:05.421Z,32.10
2018-07-02T16:13:34.550Z,31.70
2018-07-02T16:16:03.119Z,32.50
2018-07-02T16:18:32.301Z,31.90
2018-07-02T16:21:00.727Z,33.50
2018-07-02T16:23:29.138Z,31.90
2018-07-02T16:25:58.085Z,32.20
2018-07-02T16:28:27.472Z,32.20
2018-07-02T16:30:56.208Z,31.70
2018-07-02T16:33:25.111Z,31.60
2018-07-02T16:35:53.637Z,31.80
2018-07-02T16:38:22.090Z,31.80
2018-07-02T16:40:56.151Z,31.60
2018-07-02T16:43:26.962Z,31.80
2018-07-02T16:45:56.788Z,31.80
2018-07-02T16:48:25.261Z,31.90
2018-07-02T16:50:53.785Z,32.20
2018-07-02T16:53:22.655Z,33.10
2018-07-02T16:55:51.547Z,32.20
2018-07-02T16:58:20.002Z,31.60
2018-07-02T17:00:49.094Z,32.40
2018-07-02T17:03:19.283Z,32.70
2018-07-02T17:08:16.476Z,32.90
2018-07-02T17:10:45.375Z,32.60
2018-07-02T17:13:13.844Z,32.80
2018-07-02T17:15:42.847Z,32.20
2018-07-02T17:18:12.645Z,31.90
2018-07-02T17:20:41.153Z,31.60
2018-07-02T17:23:09.837Z,32.00
2018-07-02T17:25:38.558Z,31.40
2018-07-02T17:28:07.423Z,32.10
2018-07-02T17:30:36.108Z,32.90
2018-07-02T17:35:33.115Z,32.00
2018-07-02T17:38:01.590Z,32.40
2018-07-02T17:40:30.469Z,33.10
2018-07-02T17:42:59.758Z,32.70
2018-07-02T17:45:28.198Z,32.10
2018-07-02T17:47:57.398Z,32.20
2018-07-02T17:50:25.966Z,32.30
2018-07-02T17:52:55.101Z,32.60
2018-07-02T17:57:52.027Z,32.90
2018-07-02T18:00:21.186Z,33.60
2018-07-02T18:02:50.724Z,33.20
2018-07-02T18:05:21.879Z,34.10
2018-07-02T18:07:51.017Z,33.60
2018-07-02T18:10:19.542Z,34.90
2018-07-02T18:12:47.999Z,34.50
2018-07-02T18:17:44.974Z,34.50
2018-07-02T18:20:13.429Z,34.00
2018-07-02T18:22:42.101Z,34.20
2018-07-02T18:25:10.681Z,35.40
2018-07-02T18:27:39.233Z,35.80
2018-07-02T18:30:07.882Z,36.30
2018-07-02T18:32:36.366Z,34.90
2018-07-02T18:35:04.870Z,34.70
2018-07-02T18:37:33.317Z,35.80
2018-07-02T18:40:01.726Z,35.70
2018-07-02T18:42:30.149Z,36.40
2018-07-02T18:44:58.606Z,38.70
2018-07-02T18:47:27.229Z,40.10
2018-07-02T18:49:55.845Z,41.50
2018-07-02T18:52:24.431Z,42.70
2018-07-02T18:54:52.846Z,44.40
2018-07-02T18:57:21.329Z,44.60
2018-07-02T18:59:51.383Z,44.60
2018-07-02T19:02:20.914Z,46.10
2018-07-02T19:04:49.377Z,46.30
2018-07-02T19:07:18.763Z,47.10
2018-07-02T19:09:48.007Z,46.20
2018-07-02T19:12:17.065Z,47.20
2018-07-02T19:14:46.254Z,48.70
2018-07-02T19:17:14.816Z,48.90
2018-07-02T19:19:43.241Z,49.10
2018-07-02T19:22:12.374Z,49.60
2018-07-02T19:24:42.584Z,50.20
2018-07-02T19:27:11.436Z,50.20
2018-07-02T19:29:39.969Z,51.20
2018-07-02T19:32:08.615Z,51.90
2018-07-02T19:34:37.324Z,52.20
2018-07-02T19:37:06.089Z,52.00
2018-07-02T19:39:35.397Z,53.30
2018-07-02T19:42:04.137Z,53.30
2018-07-02T19:44:32.803Z,53.90
2018-07-02T19:47:01.654Z,54.70
2018-07-02T19:49:31.525Z,57.10
2018-07-02T19:52:00.612Z,56.70
2018-07-02T19:54:29.205Z,58.20
2018-07-02T19:56:57.747Z,62.20
2018-07-02T19:59:26.290Z,71.00
2018-07-02T20:01:55.287Z,76.40
2018-07-02T20:04:23.766Z,79.90
2018-07-02T20:06:52.304Z,91.50
2018-07-02T20:09:20.815Z,97.30
2018-07-02T20:11:49.298Z,99.90
2018-07-02T20:14:17.712Z,99.90
2018-07-02T20:16:46.751Z,99.90
2018-07-02T20:19:15.499Z,99.90
2018-07-02T20:21:44.204Z,99.90
2018-07-02T20:24:12.673Z,99.90
2018-07-02T20:26:41.209Z,99.90
2018-07-02T20:29:10.156Z,99.90
2018-07-02T20:31:38.738Z,99.90
2018-07-02T20:34:07.189Z,99.90
2018-07-02T20:36:35.834Z,99.90
2018-07-02T20:39:06.475Z,99.90
2018-07-02T20:41:35.041Z,99.90
2018-07-02T20:44:03.611Z,99.90
2018-07-02T20:46:32.488Z,99.90
2018-07-02T20:49:00.958Z,99.90
2018-07-02T20:51:29.405Z,99.90
2018-07-02T20:53:57.833Z,99.90
2018-07-02T20:56:26.354Z,99.90
2018-07-02T20:58:55.232Z,99.90
2018-07-02T21:01:23.699Z,99.90
2018-07-02T21:03:52.145Z,99.90
2018-07-02T21:06:21.058Z,99.90
2018-07-02T21:08:49.703Z,99.90
2018-07-02T21:11:18.172Z,99.90
2018-07-02T21:13:47.128Z,99.90
2018-07-02T21:18:43.939Z,99.90
2018-07-02T21:21:12.418Z,99.90
2018-07-02T21:23:41.025Z,99.90
2018-07-02T21:26:15.654Z,99.90
2018-07-02T21:28:44.104Z,99.90
2018-07-02T21:31:12.736Z,99.90
2018-07-02T21:33:41.163Z,99.90
2018-07-02T21:36:09.861Z,99.90
2018-07-02T21:38:38.371Z,99.90
2018-07-02T21:41:06.804Z,99.90
2018-07-02T21:46:03.632Z,99.90
2018-07-02T21:48:32.174Z,99.90
2018-07-02T21:51:01.050Z,99.90
2018-07-02T21:53:29.849Z,99.90
2018-07-02T21:55:58.474Z,99.90
2018-07-02T21:58:27.108Z,99.90
2018-07-02T22:00:55.771Z,99.90
2018-07-02T22:03:24.249Z,99.90
2018-07-02T22:05:52.673Z,99.90
2018-07-02T22:08:21.093Z,99.90
2018-07-02T22:10:49.727Z,99.90
2018-07-02T22:13:18.275Z,99.90
2018-07-02T22:15:47.037Z,99.90
2018-07-02T22:18:15.492Z,99.90
2018-07-02T22:20:44.136Z,99.90
2018-07-02T22:23:12.880Z,99.90
2018-07-02T22:25:44.604Z,99.90
2018-07-02T22:28:13.164Z,99.90
2018-07-02T22:30:41.654Z,99.90
2018-07-02T22:33:10.276Z,99.90
2018-07-02T22:35:39.054Z,99.90
2018-07-02T22:38:08.678Z,99.90
2018-07-02T22:40:37.625Z,99.90
2018-07-02T22:43:06.878Z,99.90
2018-07-02T22:45:36.447Z,99.90
2018-07-02T22:48:05.454Z,99.90
2018-07-02T22:50:34.259Z,99.90
2018-07-02T22:53:03.208Z,99.90
2018-07-02T22:55:37.228Z,99.90
2018-07-02T22:58:06.247Z,99.90
2018-07-02T23:00:35.338Z,99.90
2018-07-02T23:03:04.494Z,99.90
2018-07-02T23:05:33.393Z,99.90
2018-07-02T23:08:02.331Z,99.90
2018-07-02T23:10:31.476Z,99.90
2018-07-02T23:13:00.573Z,99.90
2018-07-02T23:15:29.578Z,99.90
2018-07-02T23:17:58.709Z,99.90
2018-07-02T23:20:27.658Z,99.90
2018-07-02T23:23:01.199Z,99.90
2018-07-02T23:25:30.649Z,99.90
2018-07-02T23:28:00.829Z,99.90
2018-07-02T23:30:31.424Z,99.90
2018-07-02T23:33:00.646Z,99.90
2018-07-02T23:35:29.490Z,99.90
2018-07-02T23:37:58.382Z,99.90
2018-07-02T23:40:27.644Z,99.90
2018-07-02T23:42:56.664Z,99.90
2018-07-02T23:45:25.683Z,99.90
2018-07-02T23:47:54.784Z,99.90
2018-07-02T23:50:23.981Z,99.90
2018-07-02T23:52:53.076Z,99.90
2018-07-02T23:55:22.237Z,99.90
2018-07-02T23:57:51.348Z,99.90
